Terminal Aerodrome Forecast
Issued by NWS Binghamton, NY

Home | Current Version | Previous Version | Text Only | Print | Product List | Glossary On
Versions: 1 2 3 4 5 6 7 8 9 10 11 12 13 14 15 16 17 18 19 20 21 22
000
FTUS41 KBGM 241600 AAB
TAFAVP
TAF AMD
KAVP 241613Z 2416/2512 21012G25KT P6SM SCT025 OVC035 WS020/19045KT
     FM241800 23015G25KT P6SM BKN040 WS020/19045KT
     FM250000 25012G22KT P6SM BKN040=

USA.gov is the U.S. government's official web portal to all federal, state and local government web resources and services.